QTR70 EDDF-OTHH
Flight info
| Callsign | QTR70 |
|---|---|
| Flight time | 5h 38m |
| Altitude | 38000 |
| Route | CINDY8S/18 CINDY Z74 LAMPU DCT NOMBO Y161 MAH DCT VAVOR DCT RADIZ DCT NEMEK DCT VRANA DCT DIMIS DCT IPTES UL604 SALUN N705 MMA P751 DASUM Y234 FYM M872 WEJ L604 GAS G662 KSA N687 KINIB Z511 GISRA L681 ORLEK |
| Aircraft | A359/H-SDE2E3GHIJ3J4J5LM1ORWXY/LB1D1 |
Departure
| Time | 2026-05-04 15:56 |
|---|---|
| Airport | Frankfurt Main Airport (EDDF) |
Arrival
| Time | 2026-05-04 21:35 |
|---|---|
| Airport | Hamad International Airport (OTHH) |
| Time | Latitude | Longitude | Altitude | Speed | Heading |
|---|---|---|---|---|---|
| 2026-05-04 14:39 | 50.03371 | 8.58453 | 363 ft | 0 kts | 114° |
| 2026-05-04 15:28 | 50.03371 | 8.58452 | 363 ft | 0 kts | 114° |
| 2026-05-04 15:28 | 50.03370 | 8.58454 | 363 ft | 0 kts | 114° |
| 2026-05-04 15:28 | 50.03385 | 8.58387 | 367 ft | 4 kts | 102° |
| 2026-05-04 15:29 | 50.03387 | 8.58351 | 368 ft | 3 kts | 83° |
| 2026-05-04 15:30 | 50.03351 | 8.58289 | 365 ft | 0 kts | 25° |
| 2026-05-04 15:46 | 50.03358 | 8.58294 | 370 ft | 6 kts | 25° |
| 2026-05-04 15:46 | 50.03395 | 8.58319 | 368 ft | 6 kts | 19° |
| 2026-05-04 15:46 | 50.03434 | 8.58312 | 366 ft | 6 kts | 338° |
| 2026-05-04 15:47 | 50.03466 | 8.58293 | 370 ft | 8 kts | 339° |
| 2026-05-04 15:47 | 50.03547 | 8.58244 | 367 ft | 11 kts | 339° |
| 2026-05-04 15:47 | 50.03598 | 8.58177 | 371 ft | 9 kts | 282° |
| 2026-05-04 15:47 | 50.03590 | 8.58107 | 369 ft | 13 kts | 251° |
| 2026-05-04 15:48 | 50.03549 | 8.57939 | 367 ft | 18 kts | 249° |
| 2026-05-04 15:48 | 50.03505 | 8.57752 | 368 ft | 20 kts | 250° |
| 2026-05-04 15:48 | 50.03402 | 8.57317 | 368 ft | 23 kts | 250° |
| 2026-05-04 15:49 | 50.03345 | 8.57080 | 363 ft | 24 kts | 249° |
| 2026-05-04 15:49 | 50.03286 | 8.56834 | 363 ft | 25 kts | 250° |
| 2026-05-04 15:49 | 50.03223 | 8.56570 | 363 ft | 27 kts | 249° |
| 2026-05-04 15:49 | 50.03164 | 8.56303 | 354 ft | 22 kts | 263° |
| 2026-05-04 15:50 | 50.03108 | 8.56095 | 359 ft | 21 kts | 245° |
| 2026-05-04 15:50 | 50.03055 | 8.55876 | 355 ft | 22 kts | 254° |
| 2026-05-04 15:50 | 50.03006 | 8.55651 | 357 ft | 22 kts | 251° |
| 2026-05-04 15:50 | 50.02949 | 8.55422 | 356 ft | 23 kts | 249° |
| 2026-05-04 15:51 | 50.02892 | 8.55186 | 359 ft | 24 kts | 249° |
| 2026-05-04 15:51 | 50.02833 | 8.54940 | 354 ft | 25 kts | 249° |
| 2026-05-04 15:51 | 50.02772 | 8.54681 | 356 ft | 26 kts | 250° |
| 2026-05-04 15:51 | 50.02709 | 8.54416 | 356 ft | 27 kts | 250° |
| 2026-05-04 15:52 | 50.02652 | 8.54136 | 353 ft | 28 kts | 252° |
| 2026-05-04 15:52 | 50.02583 | 8.53847 | 336 ft | 29 kts | 250° |
| 2026-05-04 15:52 | 50.02513 | 8.53555 | 353 ft | 28 kts | 249° |
| 2026-05-04 15:52 | 50.02444 | 8.53267 | 348 ft | 29 kts | 249° |
| 2026-05-04 15:53 | 50.02376 | 8.52981 | 350 ft | 24 kts | 250° |
| 2026-05-04 15:53 | 50.02341 | 8.52836 | 350 ft | 11 kts | 249° |
| 2026-05-04 15:53 | 50.02329 | 8.52790 | 350 ft | 0 kts | 249° |
| 2026-05-04 15:54 | 50.02327 | 8.52780 | 344 ft | 6 kts | 249° |
| 2026-05-04 15:55 | 50.02307 | 8.52699 | 346 ft | 9 kts | 252° |
| 2026-05-04 15:55 | 50.02272 | 8.52612 | 338 ft | 9 kts | 208° |
| 2026-05-04 15:55 | 50.02227 | 8.52606 | 339 ft | 0 kts | 179° |
| 2026-05-04 15:56 | 50.02216 | 8.52606 | 340 ft | 11 kts | 179° |
| 2026-05-04 15:56 | 50.01831 | 8.52607 | 336 ft | 102 kts | 180° |
| 2026-05-04 15:56 | 50.00833 | 8.52628 | 442 ft | 173 kts | 181° |
| 2026-05-04 15:56 | 49.99619 | 8.52689 | 1431 ft | 181 kts | 180° |
| 2026-05-04 15:57 | 49.98258 | 8.52702 | 2173 ft | 211 kts | 182° |
| 2026-05-04 15:57 | 49.96749 | 8.53121 | 2541 ft | 235 kts | 152° |
| 2026-05-04 15:57 | 49.95601 | 8.54930 | 3290 ft | 239 kts | 121° |
| 2026-05-04 15:57 | 49.94810 | 8.57201 | 3858 ft | 240 kts | 117° |
| 2026-05-04 15:58 | 49.94160 | 8.59589 | 4465 ft | 241 kts | 106° |
| 2026-05-04 15:58 | 49.93923 | 8.62213 | 5051 ft | 255 kts | 95° |
| 2026-05-04 15:58 | 49.93833 | 8.65029 | 5630 ft | 266 kts | 95° |
| 2026-05-04 15:58 | 49.93648 | 8.67908 | 6381 ft | 269 kts | 107° |
| 2026-05-04 15:59 | 49.92817 | 8.70425 | 7111 ft | 266 kts | 136° |
| 2026-05-04 15:59 | 49.91385 | 8.72277 | 7939 ft | 267 kts | 147° |
| 2026-05-04 15:59 | 49.89869 | 8.73916 | 8789 ft | 270 kts | 148° |
| 2026-05-04 15:59 | 49.88429 | 8.75818 | 9625 ft | 278 kts | 134° |
| 2026-05-04 16:00 | 49.87344 | 8.78352 | 10380 ft | 289 kts | 124° |
| 2026-05-04 16:00 | 49.86329 | 8.81168 | 10760 ft | 309 kts | 122° |
| 2026-05-04 16:00 | 49.85257 | 8.84187 | 11162 ft | 329 kts | 122° |
| 2026-05-04 16:00 | 49.84116 | 8.87373 | 11567 ft | 348 kts | 122° |
| 2026-05-04 16:01 | 49.82915 | 8.90704 | 12052 ft | 361 kts | 122° |
| 2026-05-04 16:01 | 49.81669 | 8.94144 | 12702 ft | 369 kts | 122° |
| 2026-05-04 16:01 | 49.80401 | 8.97637 | 13427 ft | 375 kts | 122° |
| 2026-05-04 16:01 | 49.79116 | 9.01171 | 14079 ft | 380 kts | 122° |
| 2026-05-04 16:02 | 49.77807 | 9.04765 | 14726 ft | 385 kts | 122° |
| 2026-05-04 16:02 | 49.76525 | 9.08442 | 15379 ft | 392 kts | 117° |
| 2026-05-04 16:02 | 49.74894 | 9.16616 | 16619 ft | 403 kts | 111° |
| 2026-05-04 16:03 | 49.73648 | 9.20472 | 17256 ft | 402 kts | 127° |
| 2026-05-04 16:03 | 49.71987 | 9.23964 | 17921 ft | 404 kts | 132° |
| 2026-05-04 16:03 | 49.70164 | 9.27284 | 18538 ft | 407 kts | 135° |
| 2026-05-04 16:03 | 49.68255 | 9.30544 | 19135 ft | 410 kts | 136° |
| 2026-05-04 16:04 | 49.66318 | 9.33800 | 19754 ft | 413 kts | 136° |
| 2026-05-04 16:04 | 49.62326 | 9.40285 | 21000 ft | 418 kts | 142° |
| 2026-05-04 16:04 | 49.60009 | 9.42993 | 21619 ft | 418 kts | 149° |
| 2026-05-04 16:05 | 49.57563 | 9.45460 | 22227 ft | 421 kts | 151° |
| 2026-05-04 16:05 | 49.55055 | 9.47813 | 22834 ft | 424 kts | 152° |
| 2026-05-04 16:05 | 49.49947 | 9.52406 | 23951 ft | 432 kts | 153° |
| 2026-05-04 16:06 | 49.47338 | 9.54738 | 24471 ft | 435 kts | 153° |
| 2026-05-04 16:06 | 49.40288 | 9.61096 | 25882 ft | 443 kts | 153° |
| 2026-05-04 16:07 | 49.36759 | 9.64298 | 26557 ft | 447 kts | 153° |
| 2026-05-04 16:07 | 49.29455 | 9.73602 | 28032 ft | 463 kts | 139° |
| 2026-05-04 16:08 | 49.27158 | 9.77087 | 28495 ft | 467 kts | 139° |
| 2026-05-04 16:08 | 49.20221 | 9.87785 | 29833 ft | 477 kts | 138° |
| 2026-05-04 16:09 | 49.15497 | 9.94993 | 30566 ft | 483 kts | 139° |
| 2026-05-04 16:09 | 49.10706 | 10.02245 | 31256 ft | 487 kts | 139° |
| 2026-05-04 16:10 | 49.05866 | 10.09543 | 31892 ft | 491 kts | 139° |
| 2026-05-04 16:11 | 48.98418 | 10.20176 | 33325 ft | 486 kts | 141° |
| 2026-05-04 16:11 | 48.95933 | 10.23633 | 33783 ft | 484 kts | 141° |
| 2026-05-04 16:12 | 48.88518 | 10.34009 | 34857 ft | 482 kts | 140° |
| 2026-05-04 16:12 | 48.81150 | 10.44430 | 35748 ft | 483 kts | 138° |
| 2026-05-04 16:13 | 48.76497 | 10.51834 | 36288 ft | 485 kts | 135° |
| 2026-05-04 16:13 | 48.71930 | 10.59369 | 36825 ft | 486 kts | 136° |
| 2026-05-04 16:14 | 48.67314 | 10.66845 | 37334 ft | 485 kts | 136° |
| 2026-05-04 16:14 | 48.62697 | 10.74201 | 37827 ft | 486 kts | 136° |
| 2026-05-04 16:15 | 48.55690 | 10.85297 | 37942 ft | 486 kts | 136° |
| 2026-05-04 16:16 | 48.51043 | 10.92725 | 37940 ft | 487 kts | 136° |
| 2026-05-04 16:17 | 48.39324 | 11.11119 | 37943 ft | 487 kts | 137° |
| 2026-05-04 16:18 | 48.29877 | 11.25728 | 37945 ft | 487 kts | 137° |
| 2026-05-04 16:19 | 48.23718 | 11.37905 | 37942 ft | 492 kts | 123° |
| 2026-05-04 16:19 | 48.20258 | 11.46774 | 37941 ft | 493 kts | 122° |
| 2026-05-04 16:20 | 48.11713 | 11.68965 | 37938 ft | 494 kts | 122° |
| 2026-05-04 16:22 | 48.03021 | 11.91148 | 37935 ft | 495 kts | 123° |
| 2026-05-04 16:23 | 47.91944 | 12.17033 | 37918 ft | 490 kts | 138° |
| 2026-05-04 16:25 | 47.76439 | 12.36733 | 37914 ft | 489 kts | 143° |
| 2026-05-04 16:26 | 47.58292 | 12.59604 | 37921 ft | 491 kts | 138° |
| 2026-05-04 16:27 | 47.53417 | 12.66670 | 37744 ft | 491 kts | 135° |
| 2026-05-04 16:28 | 47.46055 | 12.77282 | 38002 ft | 494 kts | 136° |
| 2026-05-04 16:29 | 47.28659 | 13.01659 | 38000 ft | 493 kts | 137° |
| 2026-05-04 16:31 | 47.16182 | 13.18991 | 38001 ft | 493 kts | 137° |
| 2026-05-04 16:32 | 47.01172 | 13.39690 | 38000 ft | 493 kts | 137° |
| 2026-05-04 16:33 | 46.91143 | 13.53427 | 38000 ft | 493 kts | 137° |
| 2026-05-04 16:34 | 46.86977 | 13.59118 | 38401 ft | 494 kts | 139° |
| 2026-05-04 16:34 | 46.84463 | 13.62549 | 38133 ft | 494 kts | 139° |
| 2026-05-04 16:35 | 46.76102 | 13.73896 | 38025 ft | 494 kts | 139° |
| 2026-05-04 16:35 | 46.69362 | 13.83010 | 38022 ft | 494 kts | 139° |
| 2026-05-04 16:36 | 46.61795 | 13.93206 | 38013 ft | 494 kts | 139° |
| 2026-05-04 16:37 | 46.54221 | 14.03371 | 38008 ft | 494 kts | 139° |
| 2026-05-04 16:38 | 46.44133 | 14.16847 | 38014 ft | 495 kts | 139° |
| 2026-05-04 16:39 | 46.31430 | 14.33716 | 38045 ft | 495 kts | 139° |
| 2026-05-04 16:40 | 46.21250 | 14.47159 | 38048 ft | 496 kts | 139° |
| 2026-05-04 16:41 | 46.08489 | 14.63906 | 38045 ft | 496 kts | 139° |
| 2026-05-04 16:43 | 45.95737 | 14.80536 | 38035 ft | 496 kts | 139° |
| 2026-05-04 16:43 | 45.88052 | 14.90505 | 38035 ft | 496 kts | 140° |
| 2026-05-04 16:45 | 45.72637 | 15.10383 | 38032 ft | 497 kts | 140° |
| 2026-05-04 16:46 | 45.59762 | 15.26868 | 38025 ft | 497 kts | 140° |
| 2026-05-04 16:47 | 45.49462 | 15.40047 | 38021 ft | 498 kts | 139° |
| 2026-05-04 16:48 | 45.39152 | 15.53223 | 38023 ft | 498 kts | 140° |
| 2026-05-04 16:49 | 45.28845 | 15.66314 | 38016 ft | 499 kts | 140° |
| 2026-05-04 16:50 | 45.18469 | 15.79424 | 38246 ft | 500 kts | 140° |
| 2026-05-04 16:51 | 45.13276 | 15.85963 | 38778 ft | 499 kts | 140° |
| 2026-05-04 16:51 | 45.10677 | 15.89230 | 38958 ft | 499 kts | 140° |
| 2026-05-04 16:52 | 45.00258 | 16.02279 | 39023 ft | 500 kts | 140° |
| 2026-05-04 16:53 | 44.92429 | 16.12040 | 39030 ft | 500 kts | 140° |
| 2026-05-04 16:54 | 44.81975 | 16.25017 | 39035 ft | 501 kts | 140° |
| 2026-05-04 16:55 | 44.66255 | 16.44410 | 39047 ft | 501 kts | 140° |
| 2026-05-04 16:56 | 44.53118 | 16.60506 | 39055 ft | 502 kts | 140° |
| 2026-05-04 16:57 | 44.45214 | 16.70141 | 39059 ft | 502 kts | 140° |
| 2026-05-04 16:58 | 44.34691 | 16.82915 | 39060 ft | 502 kts | 140° |
| 2026-05-04 17:00 | 44.18813 | 17.02068 | 39061 ft | 503 kts | 140° |
| 2026-05-04 17:01 | 44.05548 | 17.17960 | 39069 ft | 504 kts | 140° |
| 2026-05-04 17:02 | 43.94897 | 17.30653 | 39078 ft | 504 kts | 140° |
| 2026-05-04 17:03 | 43.86895 | 17.40146 | 39072 ft | 505 kts | 140° |
| 2026-05-04 17:03 | 43.78878 | 17.49625 | 39080 ft | 505 kts | 140° |
| 2026-05-04 17:04 | 43.67434 | 17.60886 | 39084 ft | 506 kts | 148° |
| 2026-05-04 17:05 | 43.55590 | 17.71313 | 39083 ft | 506 kts | 148° |
| 2026-05-04 17:06 | 43.46686 | 17.79154 | 39082 ft | 507 kts | 148° |
| 2026-05-04 17:07 | 43.38737 | 17.86142 | 39076 ft | 507 kts | 148° |
| 2026-05-04 17:07 | 43.31823 | 17.92200 | 39078 ft | 508 kts | 148° |
| 2026-05-04 17:08 | 43.22875 | 18.00017 | 39077 ft | 508 kts | 148° |
| 2026-05-04 17:09 | 43.16904 | 18.05218 | 39102 ft | 509 kts | 148° |
| 2026-05-04 17:09 | 43.10920 | 18.10418 | 39111 ft | 509 kts | 148° |
| 2026-05-04 17:10 | 42.95982 | 18.23344 | 39119 ft | 510 kts | 148° |
| 2026-05-04 17:11 | 42.89982 | 18.28515 | 39120 ft | 510 kts | 148° |
| 2026-05-04 17:12 | 42.80960 | 18.36268 | 39127 ft | 511 kts | 148° |
| 2026-05-04 17:13 | 42.65902 | 18.49147 | 39130 ft | 512 kts | 148° |
| 2026-05-04 17:14 | 42.53834 | 18.59416 | 39108 ft | 512 kts | 148° |
| 2026-05-04 17:15 | 42.44771 | 18.67096 | 39104 ft | 512 kts | 148° |
| 2026-05-04 17:16 | 42.32697 | 18.77285 | 39100 ft | 513 kts | 148° |
| 2026-05-04 17:17 | 42.20577 | 18.87467 | 39109 ft | 513 kts | 148° |
| 2026-05-04 17:18 | 42.08427 | 18.97628 | 39104 ft | 514 kts | 148° |
| 2026-05-04 17:19 | 41.96262 | 19.07755 | 39108 ft | 513 kts | 148° |
| 2026-05-04 17:20 | 41.85133 | 19.16979 | 39109 ft | 512 kts | 148° |
| 2026-05-04 17:20 | 41.75041 | 19.25312 | 39117 ft | 512 kts | 148° |
| 2026-05-04 17:21 | 41.63873 | 19.34495 | 39119 ft | 513 kts | 148° |
| 2026-05-04 17:22 | 41.57834 | 19.39446 | 39124 ft | 513 kts | 148° |
| 2026-05-04 17:23 | 41.45641 | 19.49408 | 39124 ft | 514 kts | 148° |
| 2026-05-04 17:24 | 41.36485 | 19.56859 | 39130 ft | 514 kts | 148° |
| 2026-05-04 17:25 | 41.24253 | 19.66775 | 39127 ft | 515 kts | 149° |
| 2026-05-04 17:26 | 41.11995 | 19.76668 | 39127 ft | 516 kts | 149° |
| 2026-05-04 17:27 | 40.96635 | 19.89003 | 39124 ft | 517 kts | 149° |
| 2026-05-04 17:28 | 40.84368 | 19.98806 | 39119 ft | 517 kts | 149° |
| 2026-05-04 17:29 | 40.65859 | 20.13514 | 39118 ft | 518 kts | 149° |
| 2026-05-04 17:31 | 40.50397 | 20.25729 | 39120 ft | 519 kts | 149° |
| 2026-05-04 17:32 | 40.34909 | 20.37898 | 39100 ft | 519 kts | 149° |
| 2026-05-04 17:33 | 40.22515 | 20.47588 | 39104 ft | 519 kts | 149° |
| 2026-05-04 17:34 | 40.10099 | 20.57255 | 39106 ft | 520 kts | 149° |
| 2026-05-04 17:35 | 39.94153 | 20.68369 | 39111 ft | 520 kts | 154° |
| 2026-05-04 17:36 | 39.87677 | 20.72585 | 39123 ft | 520 kts | 154° |
| 2026-05-04 17:36 | 39.81228 | 20.76854 | 39128 ft | 520 kts | 153° |
| 2026-05-04 17:37 | 39.74783 | 20.81142 | 39128 ft | 520 kts | 153° |
| 2026-05-04 17:37 | 39.68380 | 20.85397 | 39130 ft | 521 kts | 154° |
| 2026-05-04 17:38 | 39.61923 | 20.89675 | 39130 ft | 521 kts | 154° |
| 2026-05-04 17:38 | 39.55461 | 20.93946 | 39130 ft | 521 kts | 154° |
| 2026-05-04 17:39 | 39.45757 | 21.00342 | 39133 ft | 522 kts | 154° |
| 2026-05-04 17:39 | 39.39282 | 21.04595 | 39136 ft | 522 kts | 154° |
| 2026-05-04 17:40 | 39.32798 | 21.08850 | 39135 ft | 523 kts | 154° |
| 2026-05-04 17:40 | 39.26300 | 21.13106 | 39138 ft | 524 kts | 154° |
| 2026-05-04 17:41 | 39.19789 | 21.17359 | 39138 ft | 525 kts | 154° |
| 2026-05-04 17:41 | 39.13269 | 21.21609 | 39140 ft | 525 kts | 154° |
| 2026-05-04 17:42 | 39.06745 | 21.25854 | 39138 ft | 525 kts | 154° |
| 2026-05-04 17:42 | 39.00226 | 21.30086 | 39136 ft | 524 kts | 154° |
| 2026-05-04 17:43 | 38.93711 | 21.34307 | 39139 ft | 524 kts | 154° |
| 2026-05-04 17:43 | 38.87240 | 21.38489 | 39140 ft | 524 kts | 154° |
| 2026-05-04 17:44 | 38.80725 | 21.42693 | 39142 ft | 524 kts | 154° |
| 2026-05-04 17:44 | 38.74202 | 21.46893 | 39139 ft | 524 kts | 154° |
| 2026-05-04 17:45 | 38.67685 | 21.51108 | 39141 ft | 525 kts | 154° |
| 2026-05-04 17:45 | 38.61193 | 21.55422 | 39139 ft | 526 kts | 153° |
| 2026-05-04 17:46 | 38.54698 | 21.59750 | 39141 ft | 526 kts | 154° |
| 2026-05-04 17:46 | 38.48191 | 21.64061 | 39143 ft | 527 kts | 154° |
| 2026-05-04 17:47 | 38.41672 | 21.68359 | 39139 ft | 527 kts | 154° |
| 2026-05-04 17:47 | 38.35153 | 21.72647 | 39139 ft | 528 kts | 154° |
| 2026-05-04 17:48 | 38.28628 | 21.76929 | 39141 ft | 528 kts | 154° |
| 2026-05-04 17:48 | 38.22089 | 21.81213 | 39143 ft | 528 kts | 154° |
| 2026-05-04 17:49 | 38.15592 | 21.85460 | 39141 ft | 529 kts | 154° |
| 2026-05-04 17:49 | 38.09051 | 21.89728 | 39146 ft | 529 kts | 154° |
| 2026-05-04 17:50 | 38.02496 | 21.93996 | 39148 ft | 530 kts | 154° |
| 2026-05-04 17:50 | 37.95935 | 21.98260 | 39157 ft | 529 kts | 154° |
| 2026-05-04 17:51 | 37.89375 | 22.02514 | 39144 ft | 530 kts | 154° |
| 2026-05-04 17:51 | 37.82809 | 22.06764 | 39153 ft | 530 kts | 154° |
| 2026-05-04 17:52 | 37.76281 | 22.10981 | 39150 ft | 530 kts | 154° |
| 2026-05-04 17:52 | 37.69703 | 22.15221 | 39145 ft | 531 kts | 154° |
| 2026-05-04 17:53 | 37.63113 | 22.19460 | 39146 ft | 531 kts | 154° |
| 2026-05-04 17:53 | 37.56541 | 22.23680 | 39144 ft | 531 kts | 154° |
| 2026-05-04 17:54 | 37.49950 | 22.27903 | 39144 ft | 531 kts | 155° |
| 2026-05-04 17:54 | 37.43364 | 22.32115 | 39138 ft | 531 kts | 155° |
| 2026-05-04 17:55 | 37.36774 | 22.36320 | 39138 ft | 531 kts | 155° |
| 2026-05-04 17:55 | 37.30180 | 22.40502 | 39143 ft | 531 kts | 155° |
| 2026-05-04 17:56 | 37.23576 | 22.44679 | 39130 ft | 531 kts | 155° |
| 2026-05-04 17:56 | 37.16977 | 22.48847 | 39130 ft | 531 kts | 155° |
| 2026-05-04 17:57 | 37.10368 | 22.53014 | 39126 ft | 531 kts | 155° |
| 2026-05-04 17:57 | 37.03762 | 22.57172 | 39125 ft | 532 kts | 155° |
| 2026-05-04 17:58 | 36.97155 | 22.61324 | 39124 ft | 532 kts | 155° |
| 2026-05-04 17:58 | 36.90533 | 22.65475 | 39118 ft | 532 kts | 155° |
| 2026-05-04 17:59 | 36.83907 | 22.69622 | 39113 ft | 533 kts | 155° |
| 2026-05-04 18:00 | 36.73988 | 22.75814 | 39112 ft | 534 kts | 155° |
| 2026-05-04 18:00 | 36.67337 | 22.79956 | 39112 ft | 534 kts | 155° |
| 2026-05-04 18:01 | 36.60686 | 22.84090 | 39112 ft | 534 kts | 156° |
| 2026-05-04 18:01 | 36.54029 | 22.88220 | 39113 ft | 535 kts | 156° |
| 2026-05-04 18:02 | 36.44033 | 22.94405 | 39115 ft | 535 kts | 156° |
| 2026-05-04 18:02 | 36.37368 | 22.98520 | 39114 ft | 535 kts | 156° |
| 2026-05-04 18:03 | 36.30698 | 23.02629 | 39119 ft | 535 kts | 156° |
| 2026-05-04 18:03 | 36.24025 | 23.06733 | 39121 ft | 535 kts | 156° |
| 2026-05-04 18:04 | 36.17354 | 23.10828 | 39129 ft | 535 kts | 156° |
| 2026-05-04 18:05 | 36.08467 | 23.16275 | 39132 ft | 536 kts | 156° |
| 2026-05-04 18:05 | 36.01781 | 23.20363 | 39123 ft | 536 kts | 156° |
| 2026-05-04 18:06 | 35.91740 | 23.26481 | 39127 ft | 536 kts | 156° |
| 2026-05-04 18:06 | 35.85048 | 23.30553 | 39124 ft | 536 kts | 156° |
| 2026-05-04 18:07 | 35.78357 | 23.34615 | 39143 ft | 536 kts | 156° |
| 2026-05-04 18:07 | 35.71666 | 23.38670 | 39140 ft | 536 kts | 157° |
| 2026-05-04 18:08 | 35.64982 | 23.42714 | 39141 ft | 535 kts | 157° |
| 2026-05-04 18:08 | 35.58298 | 23.46750 | 39142 ft | 535 kts | 157° |
| 2026-05-04 18:09 | 35.44932 | 23.54798 | 39148 ft | 535 kts | 157° |
| 2026-05-04 18:10 | 35.38244 | 23.58813 | 39149 ft | 535 kts | 157° |
| 2026-05-04 18:10 | 35.31561 | 23.62819 | 39147 ft | 535 kts | 157° |
| 2026-05-04 18:11 | 35.24878 | 23.66815 | 39154 ft | 535 kts | 157° |
| 2026-05-04 18:11 | 35.18215 | 23.70869 | 39152 ft | 535 kts | 156° |
| 2026-05-04 18:12 | 35.11618 | 23.75097 | 39149 ft | 535 kts | 155° |
| 2026-05-04 18:12 | 35.05025 | 23.79336 | 39146 ft | 536 kts | 156° |
| 2026-05-04 18:13 | 34.98417 | 23.83542 | 39142 ft | 536 kts | 156° |
| 2026-05-04 18:14 | 34.88491 | 23.89816 | 39146 ft | 536 kts | 156° |
| 2026-05-04 18:14 | 34.81868 | 23.93990 | 39145 ft | 536 kts | 156° |
| 2026-05-04 18:15 | 34.68597 | 24.02334 | 39148 ft | 537 kts | 156° |
| 2026-05-04 18:16 | 34.61953 | 24.06501 | 39152 ft | 538 kts | 156° |
| 2026-05-04 18:16 | 34.55302 | 24.10665 | 39151 ft | 538 kts | 156° |
| 2026-05-04 18:17 | 34.45315 | 24.16903 | 39152 ft | 539 kts | 156° |
| 2026-05-04 18:18 | 34.35305 | 24.23138 | 39152 ft | 539 kts | 156° |
| 2026-05-04 18:18 | 34.28632 | 24.27285 | 39151 ft | 539 kts | 157° |
| 2026-05-04 18:19 | 34.18613 | 24.33498 | 39154 ft | 540 kts | 157° |
| 2026-05-04 18:19 | 34.11932 | 24.37632 | 39156 ft | 539 kts | 157° |
| 2026-05-04 18:20 | 34.05250 | 24.41759 | 39156 ft | 539 kts | 157° |
| 2026-05-04 18:20 | 33.98813 | 24.46447 | 39156 ft | 545 kts | 143° |
| 2026-05-04 18:21 | 33.93024 | 24.52372 | 39160 ft | 547 kts | 141° |
| 2026-05-04 18:21 | 33.87363 | 24.58504 | 39160 ft | 547 kts | 140° |
| 2026-05-04 18:22 | 33.81714 | 24.64637 | 39158 ft | 547 kts | 140° |
| 2026-05-04 18:22 | 33.76042 | 24.70740 | 39158 ft | 547 kts | 141° |
| 2026-05-04 18:23 | 33.70355 | 24.76822 | 39157 ft | 547 kts | 141° |
| 2026-05-04 18:23 | 33.64662 | 24.82895 | 39152 ft | 547 kts | 141° |
| 2026-05-04 18:24 | 33.58971 | 24.88956 | 39149 ft | 547 kts | 141° |
| 2026-05-04 18:24 | 33.53274 | 24.95014 | 39164 ft | 547 kts | 141° |
| 2026-05-04 18:25 | 33.47571 | 25.01068 | 39162 ft | 547 kts | 141° |
| 2026-05-04 18:25 | 33.41872 | 25.07106 | 39158 ft | 547 kts | 141° |
| 2026-05-04 18:26 | 33.36210 | 25.13094 | 39152 ft | 547 kts | 141° |
| 2026-05-04 18:26 | 33.30504 | 25.19117 | 39160 ft | 547 kts | 141° |
| 2026-05-04 18:27 | 33.24802 | 25.25126 | 39160 ft | 547 kts | 142° |
| 2026-05-04 18:27 | 33.19091 | 25.31132 | 39158 ft | 547 kts | 142° |
| 2026-05-04 18:28 | 33.13375 | 25.37133 | 39155 ft | 547 kts | 142° |
| 2026-05-04 18:28 | 33.07659 | 25.43124 | 39159 ft | 547 kts | 142° |
| 2026-05-04 18:29 | 33.01943 | 25.49104 | 39161 ft | 547 kts | 142° |
| 2026-05-04 18:29 | 32.96221 | 25.55080 | 39162 ft | 547 kts | 142° |
| 2026-05-04 18:30 | 32.87626 | 25.64034 | 39161 ft | 547 kts | 142° |
| 2026-05-04 18:31 | 32.81899 | 25.69988 | 39161 ft | 547 kts | 142° |
| 2026-05-04 18:31 | 32.76167 | 25.75937 | 39162 ft | 547 kts | 142° |
| 2026-05-04 18:32 | 32.70433 | 25.81877 | 39164 ft | 547 kts | 142° |
| 2026-05-04 18:32 | 32.64699 | 25.87807 | 39158 ft | 547 kts | 142° |
| 2026-05-04 18:33 | 32.58960 | 25.93730 | 39161 ft | 547 kts | 142° |
| 2026-05-04 18:33 | 32.53220 | 25.99645 | 39162 ft | 547 kts | 142° |
| 2026-05-04 18:34 | 32.47483 | 26.05547 | 39162 ft | 547 kts | 142° |
| 2026-05-04 18:34 | 32.41729 | 26.11455 | 39164 ft | 547 kts | 142° |
| 2026-05-04 18:35 | 32.35981 | 26.17347 | 39161 ft | 547 kts | 143° |
| 2026-05-04 18:35 | 32.30229 | 26.23232 | 39159 ft | 547 kts | 143° |
| 2026-05-04 18:36 | 32.24472 | 26.29113 | 39158 ft | 547 kts | 143° |
| 2026-05-04 18:36 | 32.18721 | 26.34977 | 39157 ft | 547 kts | 143° |
| 2026-05-04 18:37 | 32.12966 | 26.40836 | 39157 ft | 546 kts | 143° |
| 2026-05-04 18:37 | 32.07209 | 26.46686 | 39157 ft | 546 kts | 143° |
| 2026-05-04 18:38 | 32.01500 | 26.52477 | 39161 ft | 545 kts | 143° |
| 2026-05-04 18:38 | 31.95754 | 26.58296 | 39157 ft | 544 kts | 143° |
| 2026-05-04 18:39 | 31.90011 | 26.64102 | 39163 ft | 544 kts | 143° |
| 2026-05-04 18:39 | 31.84269 | 26.69896 | 39163 ft | 544 kts | 144° |
| 2026-05-04 18:40 | 31.78524 | 26.75684 | 39161 ft | 543 kts | 144° |
| 2026-05-04 18:40 | 31.72781 | 26.81461 | 39162 ft | 543 kts | 144° |
| 2026-05-04 18:41 | 31.67041 | 26.87225 | 39165 ft | 543 kts | 144° |
| 2026-05-04 18:41 | 31.61293 | 26.92986 | 39171 ft | 543 kts | 144° |
| 2026-05-04 18:42 | 31.55548 | 26.98735 | 39166 ft | 543 kts | 144° |
| 2026-05-04 18:42 | 31.49806 | 27.04472 | 39159 ft | 543 kts | 144° |
| 2026-05-04 18:43 | 31.44057 | 27.10206 | 39150 ft | 543 kts | 144° |
| 2026-05-04 18:43 | 31.38308 | 27.15930 | 39158 ft | 542 kts | 144° |
| 2026-05-04 18:44 | 31.32666 | 27.21812 | 39156 ft | 548 kts | 137° |
| 2026-05-04 18:44 | 31.28019 | 27.28926 | 39154 ft | 552 kts | 128° |
| 2026-05-04 18:45 | 31.23704 | 27.36360 | 39160 ft | 553 kts | 127° |
| 2026-05-04 18:45 | 31.19422 | 27.43844 | 39165 ft | 554 kts | 127° |
| 2026-05-04 18:46 | 31.15118 | 27.51300 | 39169 ft | 553 kts | 127° |
| 2026-05-04 18:46 | 31.10788 | 27.58721 | 39165 ft | 553 kts | 128° |
| 2026-05-04 18:47 | 31.06388 | 27.66078 | 39168 ft | 553 kts | 128° |
| 2026-05-04 18:47 | 31.01977 | 27.73417 | 39165 ft | 553 kts | 128° |
| 2026-05-04 18:48 | 30.97598 | 27.80713 | 39166 ft | 553 kts | 128° |
| 2026-05-04 18:48 | 30.93193 | 27.88056 | 39168 ft | 553 kts | 129° |
| 2026-05-04 18:49 | 30.88787 | 27.95391 | 39160 ft | 553 kts | 129° |
| 2026-05-04 18:49 | 30.84374 | 28.02724 | 39162 ft | 553 kts | 129° |
| 2026-05-04 18:50 | 30.79958 | 28.10047 | 39171 ft | 553 kts | 129° |
| 2026-05-04 18:50 | 30.75538 | 28.17363 | 39168 ft | 553 kts | 129° |
| 2026-05-04 18:51 | 30.71832 | 28.23487 | 39165 ft | 552 kts | 129° |
| 2026-05-04 18:51 | 30.67408 | 28.30785 | 39157 ft | 552 kts | 129° |
| 2026-05-04 18:52 | 30.62983 | 28.38071 | 39155 ft | 552 kts | 129° |
| 2026-05-04 18:52 | 30.58555 | 28.45348 | 39154 ft | 552 kts | 129° |
| 2026-05-04 18:53 | 30.54128 | 28.52611 | 39158 ft | 551 kts | 129° |
| 2026-05-04 18:53 | 30.49699 | 28.59863 | 39154 ft | 551 kts | 129° |
| 2026-05-04 18:54 | 30.45268 | 28.67106 | 39152 ft | 551 kts | 130° |
| 2026-05-04 18:54 | 30.40832 | 28.74342 | 39150 ft | 551 kts | 130° |
| 2026-05-04 18:55 | 30.36395 | 28.81569 | 39140 ft | 550 kts | 130° |
| 2026-05-04 18:55 | 30.29733 | 28.92395 | 39130 ft | 550 kts | 130° |
| 2026-05-04 18:56 | 30.25287 | 28.99603 | 39124 ft | 550 kts | 130° |
| 2026-05-04 18:56 | 30.20841 | 29.06799 | 39114 ft | 550 kts | 130° |
| 2026-05-04 18:57 | 30.16398 | 29.13988 | 39116 ft | 550 kts | 130° |
| 2026-05-04 18:57 | 30.11962 | 29.21179 | 39113 ft | 549 kts | 130° |
| 2026-05-04 18:58 | 30.07578 | 29.28412 | 39113 ft | 549 kts | 129° |
| 2026-05-04 18:58 | 30.03226 | 29.35654 | 39112 ft | 549 kts | 130° |
| 2026-05-04 18:59 | 29.98863 | 29.42884 | 39108 ft | 549 kts | 130° |
| 2026-05-04 18:59 | 29.94493 | 29.50095 | 39107 ft | 549 kts | 130° |
| 2026-05-04 19:00 | 29.90116 | 29.57300 | 39111 ft | 548 kts | 130° |
| 2026-05-04 19:00 | 29.85740 | 29.64488 | 39113 ft | 548 kts | 130° |
| 2026-05-04 19:01 | 29.81358 | 29.71675 | 39109 ft | 548 kts | 130° |
| 2026-05-04 19:01 | 29.77002 | 29.78807 | 39109 ft | 548 kts | 130° |
| 2026-05-04 19:02 | 29.72614 | 29.85978 | 39112 ft | 548 kts | 130° |
| 2026-05-04 19:02 | 29.68227 | 29.93137 | 39105 ft | 548 kts | 131° |
| 2026-05-04 19:03 | 29.63835 | 30.00291 | 39107 ft | 547 kts | 131° |
| 2026-05-04 19:03 | 29.59438 | 30.07440 | 39107 ft | 547 kts | 131° |
| 2026-05-04 19:04 | 29.55044 | 30.14573 | 39105 ft | 547 kts | 131° |
| 2026-05-04 19:04 | 29.50651 | 30.21691 | 39106 ft | 546 kts | 131° |
| 2026-05-04 19:05 | 29.46261 | 30.28791 | 39102 ft | 546 kts | 131° |
| 2026-05-04 19:05 | 29.41866 | 30.35888 | 39111 ft | 545 kts | 131° |
| 2026-05-04 19:06 | 29.37070 | 30.42499 | 39102 ft | 536 kts | 140° |
| 2026-05-04 19:06 | 29.31950 | 30.48695 | 39105 ft | 535 kts | 141° |
| 2026-05-04 19:07 | 29.26782 | 30.54817 | 39102 ft | 534 kts | 141° |
| 2026-05-04 19:07 | 29.21617 | 30.60934 | 39104 ft | 534 kts | 141° |
| 2026-05-04 19:08 | 29.16464 | 30.67049 | 39100 ft | 534 kts | 141° |
| 2026-05-04 19:08 | 29.11310 | 30.73167 | 39098 ft | 534 kts | 141° |
| 2026-05-04 19:09 | 29.06157 | 30.79274 | 39101 ft | 534 kts | 141° |
| 2026-05-04 19:09 | 29.00998 | 30.85379 | 39100 ft | 534 kts | 141° |
| 2026-05-04 19:10 | 28.95840 | 30.91473 | 39099 ft | 533 kts | 141° |
| 2026-05-04 19:10 | 28.90680 | 30.97559 | 39106 ft | 533 kts | 141° |
| 2026-05-04 19:11 | 28.85554 | 31.03596 | 39106 ft | 533 kts | 142° |
| 2026-05-04 19:11 | 28.80398 | 31.09659 | 39117 ft | 533 kts | 142° |
| 2026-05-04 19:12 | 28.72658 | 31.18745 | 39118 ft | 532 kts | 142° |
| 2026-05-04 19:13 | 28.67520 | 31.24821 | 39115 ft | 533 kts | 140° |
| 2026-05-04 19:13 | 28.62544 | 31.31105 | 39115 ft | 535 kts | 139° |
| 2026-05-04 19:14 | 28.57606 | 31.37428 | 39113 ft | 534 kts | 139° |
| 2026-05-04 19:14 | 28.52650 | 31.43704 | 39108 ft | 533 kts | 140° |
| 2026-05-04 19:15 | 28.47674 | 31.49954 | 39113 ft | 533 kts | 140° |
| 2026-05-04 19:15 | 28.42695 | 31.56186 | 39109 ft | 533 kts | 140° |
| 2026-05-04 19:16 | 28.37714 | 31.62412 | 39112 ft | 532 kts | 140° |
| 2026-05-04 19:16 | 28.32735 | 31.68630 | 39112 ft | 532 kts | 140° |
| 2026-05-04 19:17 | 28.27754 | 31.74842 | 39111 ft | 532 kts | 140° |
| 2026-05-04 19:17 | 28.22770 | 31.81047 | 39111 ft | 532 kts | 141° |
| 2026-05-04 19:18 | 28.17788 | 31.87241 | 39113 ft | 531 kts | 141° |
| 2026-05-04 19:18 | 28.12805 | 31.93427 | 39115 ft | 531 kts | 141° |
| 2026-05-04 19:19 | 28.07825 | 31.99600 | 39115 ft | 531 kts | 141° |
| 2026-05-04 19:19 | 28.03069 | 32.06065 | 39112 ft | 544 kts | 130° |
| 2026-05-04 19:20 | 27.99228 | 32.13496 | 39104 ft | 549 kts | 126° |
| 2026-05-04 19:20 | 27.95588 | 32.21104 | 39096 ft | 551 kts | 125° |
| 2026-05-04 19:21 | 27.91957 | 32.28738 | 39086 ft | 551 kts | 126° |
| 2026-05-04 19:21 | 27.88299 | 32.36349 | 39078 ft | 551 kts | 126° |
| 2026-05-04 19:22 | 27.84622 | 32.43945 | 39066 ft | 551 kts | 126° |
| 2026-05-04 19:22 | 27.80934 | 32.51541 | 39062 ft | 551 kts | 126° |
| 2026-05-04 19:23 | 27.77264 | 32.59088 | 39059 ft | 552 kts | 126° |
| 2026-05-04 19:23 | 27.73568 | 32.66679 | 39053 ft | 552 kts | 126° |
| 2026-05-04 19:24 | 27.69866 | 32.74266 | 39054 ft | 552 kts | 126° |
| 2026-05-04 19:24 | 27.66160 | 32.81851 | 39047 ft | 552 kts | 126° |
| 2026-05-04 19:25 | 27.62448 | 32.89434 | 39040 ft | 552 kts | 126° |
| 2026-05-04 19:25 | 27.58730 | 32.97013 | 39047 ft | 553 kts | 127° |
| 2026-05-04 19:26 | 27.55002 | 33.04599 | 39042 ft | 553 kts | 127° |
| 2026-05-04 19:26 | 27.51270 | 33.12182 | 39039 ft | 553 kts | 127° |
| 2026-05-04 19:27 | 27.47537 | 33.19756 | 39036 ft | 553 kts | 127° |
| 2026-05-04 19:27 | 27.43796 | 33.27329 | 39029 ft | 553 kts | 127° |
| 2026-05-04 19:28 | 27.40048 | 33.34904 | 39029 ft | 554 kts | 127° |
| 2026-05-04 19:28 | 27.36302 | 33.42466 | 39024 ft | 554 kts | 127° |
| 2026-05-04 19:29 | 27.32545 | 33.50030 | 39022 ft | 554 kts | 127° |
| 2026-05-04 19:29 | 27.28776 | 33.57599 | 39016 ft | 554 kts | 127° |
| 2026-05-04 19:30 | 27.25005 | 33.65163 | 39017 ft | 555 kts | 127° |
| 2026-05-04 19:30 | 27.21232 | 33.72718 | 39016 ft | 555 kts | 127° |
| 2026-05-04 19:31 | 27.17595 | 33.80390 | 39026 ft | 562 kts | 120° |
| 2026-05-04 19:31 | 27.14594 | 33.88454 | 39016 ft | 564 kts | 119° |
| 2026-05-04 19:32 | 27.11697 | 33.96637 | 39006 ft | 564 kts | 118° |
| 2026-05-04 19:32 | 27.08807 | 34.04830 | 38995 ft | 564 kts | 119° |
| 2026-05-04 19:33 | 27.05904 | 34.12992 | 38981 ft | 563 kts | 119° |
| 2026-05-04 19:33 | 27.02991 | 34.21135 | 38976 ft | 562 kts | 119° |
| 2026-05-04 19:34 | 27.00075 | 34.29274 | 38975 ft | 562 kts | 119° |
| 2026-05-04 19:34 | 26.97154 | 34.37391 | 38972 ft | 561 kts | 119° |
| 2026-05-04 19:35 | 26.94228 | 34.45502 | 38977 ft | 561 kts | 119° |
| 2026-05-04 19:35 | 26.91302 | 34.53605 | 38973 ft | 561 kts | 119° |
| 2026-05-04 19:36 | 26.88867 | 34.60337 | 38975 ft | 561 kts | 119° |
| 2026-05-04 19:36 | 26.85932 | 34.68435 | 38974 ft | 561 kts | 119° |
| 2026-05-04 19:37 | 26.82993 | 34.76527 | 38978 ft | 561 kts | 119° |
| 2026-05-04 19:37 | 26.80051 | 34.84611 | 38978 ft | 561 kts | 119° |
| 2026-05-04 19:38 | 26.77102 | 34.92697 | 38976 ft | 561 kts | 119° |
| 2026-05-04 19:38 | 26.74154 | 35.00776 | 38974 ft | 561 kts | 119° |
| 2026-05-04 19:39 | 26.71200 | 35.08849 | 38969 ft | 561 kts | 119° |
| 2026-05-04 19:39 | 26.68243 | 35.16913 | 38971 ft | 560 kts | 119° |
| 2026-05-04 19:40 | 26.65282 | 35.24971 | 38961 ft | 560 kts | 120° |
| 2026-05-04 19:40 | 26.62321 | 35.33017 | 38968 ft | 560 kts | 120° |
| 2026-05-04 19:41 | 26.59356 | 35.41054 | 38963 ft | 559 kts | 120° |
| 2026-05-04 19:41 | 26.56389 | 35.49081 | 38960 ft | 559 kts | 120° |
| 2026-05-04 19:42 | 26.53373 | 35.57070 | 38959 ft | 558 kts | 120° |
| 2026-05-04 19:42 | 26.50316 | 35.65018 | 38956 ft | 557 kts | 120° |
| 2026-05-04 19:43 | 26.47259 | 35.72969 | 38955 ft | 557 kts | 120° |
| 2026-05-04 19:43 | 26.44211 | 35.80909 | 38949 ft | 556 kts | 120° |
| 2026-05-04 19:44 | 26.41184 | 35.88790 | 38951 ft | 556 kts | 120° |
| 2026-05-04 19:44 | 26.38135 | 35.96714 | 38946 ft | 556 kts | 120° |
| 2026-05-04 19:45 | 26.35086 | 36.04618 | 38945 ft | 555 kts | 121° |
| 2026-05-04 19:45 | 26.32032 | 36.12522 | 38942 ft | 555 kts | 121° |
| 2026-05-04 19:46 | 26.28978 | 36.20410 | 38941 ft | 554 kts | 121° |
| 2026-05-04 19:46 | 26.25922 | 36.28288 | 38936 ft | 553 kts | 121° |
| 2026-05-04 19:47 | 26.22866 | 36.36149 | 38939 ft | 553 kts | 121° |
| 2026-05-04 19:47 | 26.19866 | 36.44035 | 38935 ft | 557 kts | 116° |
| 2026-05-04 19:47 | 26.18837 | 36.48216 | 38936 ft | 566 kts | 105° |
| 2026-05-04 19:48 | 26.18469 | 36.52605 | 38937 ft | 573 kts | 93° |
| 2026-05-04 19:48 | 26.19052 | 36.61493 | 38935 ft | 577 kts | 86° |
| 2026-05-04 19:49 | 26.20007 | 36.70366 | 38944 ft | 577 kts | 85° |
| 2026-05-04 19:49 | 26.20973 | 36.79229 | 38941 ft | 576 kts | 86° |
| 2026-05-04 19:50 | 26.21878 | 36.88094 | 38952 ft | 576 kts | 86° |
| 2026-05-04 19:50 | 26.22748 | 36.96956 | 38948 ft | 575 kts | 86° |
| 2026-05-04 19:51 | 26.23607 | 37.05804 | 38956 ft | 575 kts | 86° |
| 2026-05-04 19:51 | 26.24463 | 37.14649 | 38961 ft | 574 kts | 86° |
| 2026-05-04 19:52 | 26.25315 | 37.23493 | 38962 ft | 574 kts | 86° |
| 2026-05-04 19:52 | 26.26156 | 37.32272 | 38971 ft | 574 kts | 87° |
| 2026-05-04 19:53 | 26.26998 | 37.41111 | 38967 ft | 574 kts | 87° |
| 2026-05-04 19:53 | 26.27835 | 37.49946 | 38973 ft | 573 kts | 87° |
| 2026-05-04 19:54 | 26.28664 | 37.58775 | 38968 ft | 573 kts | 87° |
| 2026-05-04 19:54 | 26.29488 | 37.67604 | 38973 ft | 573 kts | 87° |
| 2026-05-04 19:55 | 26.30306 | 37.76426 | 38970 ft | 572 kts | 87° |
| 2026-05-04 19:55 | 26.31120 | 37.85264 | 38969 ft | 574 kts | 87° |
| 2026-05-04 19:56 | 26.31932 | 37.94118 | 38958 ft | 575 kts | 87° |
| 2026-05-04 19:56 | 26.32741 | 38.02996 | 38959 ft | 575 kts | 87° |
| 2026-05-04 19:57 | 26.33543 | 38.11866 | 38951 ft | 575 kts | 87° |
| 2026-05-04 19:57 | 26.34342 | 38.20743 | 38960 ft | 576 kts | 87° |
| 2026-05-04 19:58 | 26.35137 | 38.29621 | 38969 ft | 575 kts | 87° |
| 2026-05-04 19:58 | 26.35920 | 38.38494 | 38968 ft | 575 kts | 88° |
| 2026-05-04 19:59 | 26.36695 | 38.47365 | 38971 ft | 575 kts | 88° |
| 2026-05-04 19:59 | 26.37465 | 38.56232 | 38984 ft | 574 kts | 88° |
| 2026-05-04 20:00 | 26.38232 | 38.65097 | 38986 ft | 574 kts | 88° |
| 2026-05-04 20:00 | 26.38993 | 38.73955 | 38993 ft | 573 kts | 88° |
| 2026-05-04 20:01 | 26.39747 | 38.82807 | 38999 ft | 573 kts | 88° |
| 2026-05-04 20:01 | 26.40491 | 38.91596 | 38998 ft | 573 kts | 88° |
| 2026-05-04 20:02 | 26.41232 | 39.00437 | 39000 ft | 573 kts | 88° |
| 2026-05-04 20:02 | 26.41974 | 39.09345 | 39002 ft | 573 kts | 88° |
| 2026-05-04 20:03 | 26.42702 | 39.18136 | 39001 ft | 573 kts | 88° |
| 2026-05-04 20:03 | 26.43428 | 39.26984 | 39004 ft | 573 kts | 88° |
| 2026-05-04 20:04 | 26.43995 | 39.35842 | 39002 ft | 572 kts | 91° |
| 2026-05-04 20:04 | 26.44380 | 39.44695 | 39003 ft | 572 kts | 91° |
| 2026-05-04 20:05 | 26.44770 | 39.53557 | 38999 ft | 572 kts | 91° |
| 2026-05-04 20:05 | 26.45191 | 39.62419 | 39007 ft | 572 kts | 91° |
| 2026-05-04 20:06 | 26.45624 | 39.71270 | 39014 ft | 572 kts | 91° |
| 2026-05-04 20:06 | 26.46052 | 39.80128 | 39011 ft | 571 kts | 91° |
| 2026-05-04 20:07 | 26.46471 | 39.88981 | 39012 ft | 571 kts | 91° |
| 2026-05-04 20:07 | 26.46884 | 39.97834 | 39020 ft | 571 kts | 91° |
| 2026-05-04 20:08 | 26.47292 | 40.06702 | 39014 ft | 573 kts | 91° |
| 2026-05-04 20:08 | 26.47694 | 40.15579 | 39014 ft | 574 kts | 91° |
| 2026-05-04 20:09 | 26.48093 | 40.24481 | 39009 ft | 575 kts | 91° |
| 2026-05-04 20:09 | 26.48487 | 40.33410 | 39004 ft | 576 kts | 91° |
| 2026-05-04 20:10 | 26.48877 | 40.42363 | 39008 ft | 578 kts | 91° |
| 2026-05-04 20:10 | 26.49262 | 40.51332 | 39008 ft | 579 kts | 91° |
| 2026-05-04 20:11 | 26.49643 | 40.60315 | 39001 ft | 580 kts | 91° |
| 2026-05-04 20:11 | 26.50019 | 40.69314 | 39000 ft | 581 kts | 91° |
| 2026-05-04 20:12 | 26.50385 | 40.78325 | 38996 ft | 581 kts | 91° |
| 2026-05-04 20:12 | 26.50745 | 40.87279 | 38989 ft | 581 kts | 91° |
| 2026-05-04 20:13 | 26.51103 | 40.96293 | 38989 ft | 581 kts | 91° |
| 2026-05-04 20:13 | 26.51284 | 41.05301 | 38992 ft | 577 kts | 98° |
| 2026-05-04 20:14 | 26.50783 | 41.14228 | 38984 ft | 576 kts | 99° |
| 2026-05-04 20:14 | 26.50148 | 41.23128 | 38971 ft | 575 kts | 100° |
| 2026-05-04 20:15 | 26.49493 | 41.32011 | 38971 ft | 574 kts | 100° |
| 2026-05-04 20:15 | 26.48847 | 41.40883 | 38965 ft | 573 kts | 100° |
| 2026-05-04 20:16 | 26.48207 | 41.49744 | 38957 ft | 572 kts | 100° |
| 2026-05-04 20:16 | 26.47564 | 41.58588 | 38954 ft | 571 kts | 100° |
| 2026-05-04 20:17 | 26.46917 | 41.67413 | 38949 ft | 570 kts | 100° |
| 2026-05-04 20:17 | 26.46262 | 41.76238 | 38949 ft | 570 kts | 100° |
| 2026-05-04 20:18 | 26.45604 | 41.85041 | 38946 ft | 569 kts | 100° |
| 2026-05-04 20:18 | 26.44941 | 41.93840 | 38943 ft | 569 kts | 100° |
| 2026-05-04 20:19 | 26.44273 | 42.02636 | 38942 ft | 569 kts | 100° |
| 2026-05-04 20:19 | 26.43599 | 42.11429 | 38942 ft | 568 kts | 100° |
| 2026-05-04 20:20 | 26.42922 | 42.20208 | 38935 ft | 568 kts | 100° |
| 2026-05-04 20:20 | 26.42239 | 42.28982 | 38931 ft | 568 kts | 100° |
| 2026-05-04 20:21 | 26.41551 | 42.37753 | 38931 ft | 567 kts | 100° |
| 2026-05-04 20:21 | 26.40510 | 42.50887 | 38931 ft | 566 kts | 100° |
| 2026-05-04 20:22 | 26.39811 | 42.59632 | 38926 ft | 566 kts | 100° |
| 2026-05-04 20:22 | 26.39226 | 42.66892 | 38931 ft | 565 kts | 100° |
| 2026-05-04 20:23 | 26.38397 | 42.77099 | 38921 ft | 565 kts | 100° |
| 2026-05-04 20:23 | 26.37804 | 42.84353 | 38914 ft | 565 kts | 100° |
| 2026-05-04 20:24 | 26.37086 | 42.93071 | 38914 ft | 565 kts | 100° |
| 2026-05-04 20:24 | 26.36363 | 43.01789 | 38910 ft | 564 kts | 100° |
| 2026-05-04 20:25 | 26.35639 | 43.10502 | 38906 ft | 564 kts | 100° |
| 2026-05-04 20:25 | 26.34904 | 43.19205 | 38902 ft | 564 kts | 101° |
| 2026-05-04 20:26 | 26.34163 | 43.27909 | 38899 ft | 564 kts | 101° |
| 2026-05-04 20:26 | 26.33419 | 43.36600 | 38900 ft | 563 kts | 101° |
| 2026-05-04 20:27 | 26.32676 | 43.45234 | 38896 ft | 563 kts | 101° |
| 2026-05-04 20:27 | 26.31922 | 43.53920 | 38900 ft | 563 kts | 101° |
| 2026-05-04 20:28 | 26.31165 | 43.62595 | 38905 ft | 562 kts | 101° |
| 2026-05-04 20:28 | 26.30403 | 43.71268 | 38910 ft | 562 kts | 101° |
| 2026-05-04 20:29 | 26.28801 | 43.79664 | 38911 ft | 546 kts | 118° |
| 2026-05-04 20:29 | 26.25647 | 43.87262 | 38905 ft | 539 kts | 124° |
| 2026-05-04 20:30 | 26.22217 | 43.94674 | 38897 ft | 538 kts | 125° |
| 2026-05-04 20:30 | 26.18759 | 44.02057 | 38905 ft | 538 kts | 125° |
| 2026-05-04 20:31 | 26.15327 | 44.09449 | 38889 ft | 537 kts | 125° |
| 2026-05-04 20:31 | 26.11910 | 44.16842 | 38880 ft | 537 kts | 124° |
| 2026-05-04 20:32 | 26.08495 | 44.24231 | 38878 ft | 537 kts | 124° |
| 2026-05-04 20:32 | 26.05076 | 44.31612 | 38879 ft | 536 kts | 124° |
| 2026-05-04 20:33 | 26.01657 | 44.38980 | 38879 ft | 537 kts | 124° |
| 2026-05-04 20:33 | 25.98228 | 44.46353 | 38882 ft | 537 kts | 124° |
| 2026-05-04 20:34 | 25.94799 | 44.53718 | 38882 ft | 536 kts | 124° |
| 2026-05-04 20:34 | 25.91368 | 44.61072 | 38883 ft | 536 kts | 124° |
| 2026-05-04 20:35 | 25.87931 | 44.68428 | 38886 ft | 536 kts | 124° |
| 2026-05-04 20:35 | 25.84494 | 44.75773 | 38886 ft | 536 kts | 124° |
| 2026-05-04 20:36 | 25.81048 | 44.83115 | 38884 ft | 536 kts | 124° |
| 2026-05-04 20:36 | 25.77598 | 44.90448 | 38888 ft | 536 kts | 124° |
| 2026-05-04 20:37 | 25.74163 | 44.97740 | 38893 ft | 537 kts | 124° |
| 2026-05-04 20:37 | 25.70680 | 45.05122 | 38891 ft | 536 kts | 124° |
| 2026-05-04 20:38 | 25.67244 | 45.12395 | 38896 ft | 536 kts | 124° |
| 2026-05-04 20:38 | 25.63782 | 45.19719 | 38900 ft | 536 kts | 124° |
| 2026-05-04 20:39 | 25.60322 | 45.27029 | 38901 ft | 536 kts | 124° |
| 2026-05-04 20:39 | 25.56858 | 45.34336 | 38899 ft | 535 kts | 124° |
| 2026-05-04 20:40 | 25.53395 | 45.41628 | 38900 ft | 535 kts | 124° |
| 2026-05-04 20:40 | 25.49932 | 45.48908 | 38898 ft | 534 kts | 124° |
| 2026-05-04 20:41 | 25.46470 | 45.56175 | 38894 ft | 533 kts | 124° |
| 2026-05-04 20:41 | 25.43008 | 45.63430 | 38899 ft | 533 kts | 124° |
| 2026-05-04 20:42 | 25.39547 | 45.70669 | 38891 ft | 532 kts | 124° |
| 2026-05-04 20:42 | 25.36085 | 45.77901 | 38895 ft | 532 kts | 124° |
| 2026-05-04 20:43 | 25.32770 | 45.85229 | 38891 ft | 534 kts | 121° |
| 2026-05-04 20:43 | 25.29678 | 45.92698 | 38896 ft | 535 kts | 120° |
| 2026-05-04 20:44 | 25.26581 | 46.00169 | 38897 ft | 534 kts | 121° |
| 2026-05-04 20:44 | 25.23467 | 46.07551 | 38894 ft | 533 kts | 121° |
| 2026-05-04 20:45 | 25.20314 | 46.14955 | 38898 ft | 532 kts | 121° |
| 2026-05-04 20:45 | 25.17157 | 46.22343 | 38897 ft | 532 kts | 121° |
| 2026-05-04 20:46 | 25.14002 | 46.29718 | 38896 ft | 531 kts | 121° |
| 2026-05-04 20:46 | 25.11277 | 46.36082 | 38890 ft | 531 kts | 121° |
| 2026-05-04 20:47 | 25.08122 | 46.43439 | 38907 ft | 530 kts | 121° |
| 2026-05-04 20:47 | 25.04965 | 46.50788 | 38909 ft | 530 kts | 121° |
| 2026-05-04 20:48 | 25.01860 | 46.58163 | 38909 ft | 533 kts | 116° |
| 2026-05-04 20:48 | 25.00220 | 46.66197 | 38912 ft | 545 kts | 95° |
| 2026-05-04 20:49 | 25.00389 | 46.70379 | 38913 ft | 549 kts | 83° |
| 2026-05-04 20:49 | 25.01276 | 46.74469 | 38912 ft | 551 kts | 71° |
| 2026-05-04 20:49 | 25.04277 | 46.82253 | 38910 ft | 552 kts | 65° |
| 2026-05-04 20:50 | 25.07555 | 46.89907 | 38902 ft | 552 kts | 65° |
| 2026-05-04 20:50 | 25.10797 | 46.97517 | 38901 ft | 552 kts | 65° |
| 2026-05-04 20:51 | 25.14010 | 47.05201 | 38899 ft | 551 kts | 65° |
| 2026-05-04 20:51 | 25.17197 | 47.12892 | 38897 ft | 551 kts | 65° |
| 2026-05-04 20:52 | 25.20380 | 47.20595 | 38895 ft | 551 kts | 65° |
| 2026-05-04 20:52 | 25.23562 | 47.28302 | 38889 ft | 551 kts | 65° |
| 2026-05-04 20:53 | 25.26741 | 47.36014 | 38889 ft | 551 kts | 65° |
| 2026-05-04 20:53 | 25.29912 | 47.43720 | 38889 ft | 551 kts | 65° |
| 2026-05-04 20:54 | 25.33080 | 47.51431 | 38884 ft | 551 kts | 65° |
| 2026-05-04 20:54 | 25.36246 | 47.59150 | 38879 ft | 551 kts | 65° |
| 2026-05-04 20:55 | 25.39411 | 47.66882 | 38876 ft | 551 kts | 65° |
| 2026-05-04 20:55 | 25.42571 | 47.74610 | 38877 ft | 552 kts | 65° |
| 2026-05-04 20:56 | 25.45724 | 47.82352 | 38870 ft | 552 kts | 65° |
| 2026-05-04 20:56 | 25.48874 | 47.90107 | 38872 ft | 553 kts | 65° |
| 2026-05-04 20:57 | 25.52024 | 47.97871 | 38857 ft | 553 kts | 65° |
| 2026-05-04 20:57 | 25.55177 | 48.05659 | 38862 ft | 555 kts | 65° |
| 2026-05-04 20:58 | 25.58339 | 48.13459 | 38861 ft | 556 kts | 65° |
| 2026-05-04 20:58 | 25.61499 | 48.21272 | 38859 ft | 556 kts | 65° |
| 2026-05-04 20:59 | 25.64661 | 48.29109 | 38859 ft | 557 kts | 65° |
| 2026-05-04 20:59 | 25.67491 | 48.37101 | 38849 ft | 558 kts | 77° |
| 2026-05-04 21:00 | 25.68130 | 48.41323 | 38849 ft | 555 kts | 88° |
| 2026-05-04 21:00 | 25.68161 | 48.45582 | 38842 ft | 552 kts | 95° |
| 2026-05-04 21:00 | 25.67712 | 48.54084 | 38846 ft | 553 kts | 97° |
| 2026-05-04 21:01 | 25.67099 | 48.62587 | 38835 ft | 554 kts | 98° |
| 2026-05-04 21:01 | 25.66504 | 48.71099 | 38839 ft | 554 kts | 97° |
| 2026-05-04 21:02 | 25.65938 | 48.79623 | 38836 ft | 554 kts | 97° |
| 2026-05-04 21:02 | 25.65380 | 48.88138 | 38828 ft | 554 kts | 97° |
| 2026-05-04 21:03 | 25.64819 | 48.96653 | 38824 ft | 553 kts | 97° |
| 2026-05-04 21:03 | 25.64251 | 49.05154 | 38826 ft | 552 kts | 97° |
| 2026-05-04 21:04 | 25.63678 | 49.13632 | 38820 ft | 551 kts | 97° |
| 2026-05-04 21:04 | 25.63102 | 49.22090 | 38817 ft | 550 kts | 97° |
| 2026-05-04 21:05 | 25.62522 | 49.30547 | 38825 ft | 550 kts | 97° |
| 2026-05-04 21:05 | 25.61940 | 49.39000 | 38822 ft | 550 kts | 97° |
| 2026-05-04 21:06 | 25.61347 | 49.47450 | 38611 ft | 549 kts | 97° |
| 2026-05-04 21:06 | 25.61049 | 49.51678 | 38368 ft | 551 kts | 97° |
| 2026-05-04 21:06 | 25.60749 | 49.55909 | 38097 ft | 552 kts | 97° |
| 2026-05-04 21:07 | 25.60447 | 49.60151 | 37831 ft | 553 kts | 97° |
| 2026-05-04 21:07 | 25.60144 | 49.64400 | 37556 ft | 553 kts | 97° |
| 2026-05-04 21:07 | 25.59840 | 49.68641 | 37315 ft | 553 kts | 97° |
| 2026-05-04 21:07 | 25.59535 | 49.72891 | 37061 ft | 554 kts | 97° |
| 2026-05-04 21:08 | 25.59228 | 49.77146 | 36801 ft | 554 kts | 97° |
| 2026-05-04 21:08 | 25.58922 | 49.81386 | 36343 ft | 551 kts | 97° |
| 2026-05-04 21:08 | 25.58615 | 49.85620 | 35662 ft | 551 kts | 97° |
| 2026-05-04 21:08 | 25.58305 | 49.89853 | 34920 ft | 552 kts | 97° |
| 2026-05-04 21:09 | 25.57993 | 49.94106 | 34112 ft | 555 kts | 97° |
| 2026-05-04 21:09 | 25.57678 | 49.98372 | 33182 ft | 558 kts | 97° |
| 2026-05-04 21:09 | 25.57361 | 50.02660 | 32267 ft | 559 kts | 96° |
| 2026-05-04 21:09 | 25.57042 | 50.06961 | 31354 ft | 560 kts | 96° |
| 2026-05-04 21:10 | 25.56723 | 50.11264 | 30417 ft | 562 kts | 96° |
| 2026-05-04 21:10 | 25.56510 | 50.14118 | 29801 ft | 562 kts | 96° |
| 2026-05-04 21:10 | 25.55908 | 50.18381 | 28771 ft | 558 kts | 107° |
| 2026-05-04 21:10 | 25.54797 | 50.22466 | 28110 ft | 548 kts | 110° |
| 2026-05-04 21:11 | 25.53630 | 50.26426 | 27836 ft | 535 kts | 110° |
| 2026-05-04 21:11 | 25.52463 | 50.30323 | 27798 ft | 534 kts | 111° |
| 2026-05-04 21:11 | 25.51287 | 50.34222 | 27797 ft | 534 kts | 111° |
| 2026-05-04 21:11 | 25.50108 | 50.38115 | 27799 ft | 534 kts | 111° |
| 2026-05-04 21:12 | 25.48925 | 50.42009 | 27803 ft | 533 kts | 111° |
| 2026-05-04 21:12 | 25.47744 | 50.45895 | 27802 ft | 533 kts | 111° |
| 2026-05-04 21:12 | 25.46559 | 50.49785 | 27801 ft | 533 kts | 111° |
| 2026-05-04 21:12 | 25.45372 | 50.53674 | 27800 ft | 533 kts | 111° |
| 2026-05-04 21:13 | 25.44187 | 50.57558 | 27798 ft | 533 kts | 111° |
| 2026-05-04 21:13 | 25.43000 | 50.61440 | 27798 ft | 533 kts | 111° |
| 2026-05-04 21:13 | 25.41772 | 50.65299 | 27725 ft | 527 kts | 113° |
| 2026-05-04 21:13 | 25.40441 | 50.69042 | 27043 ft | 521 kts | 114° |
| 2026-05-04 21:14 | 25.39086 | 50.72760 | 26147 ft | 521 kts | 114° |
| 2026-05-04 21:14 | 25.37745 | 50.76470 | 25428 ft | 517 kts | 114° |
| 2026-05-04 21:14 | 25.36426 | 50.80147 | 24787 ft | 512 kts | 113° |
| 2026-05-04 21:14 | 25.35128 | 50.83782 | 24157 ft | 505 kts | 113° |
| 2026-05-04 21:15 | 25.33852 | 50.87364 | 23755 ft | 494 kts | 113° |
| 2026-05-04 21:15 | 25.32613 | 50.90846 | 23234 ft | 476 kts | 112° |
| 2026-05-04 21:15 | 25.31430 | 50.94175 | 21977 ft | 457 kts | 112° |
| 2026-05-04 21:15 | 25.30272 | 50.97430 | 20284 ft | 457 kts | 113° |
| 2026-05-04 21:16 | 25.29103 | 51.00706 | 19150 ft | 457 kts | 113° |
| 2026-05-04 21:16 | 25.27953 | 51.03933 | 18377 ft | 446 kts | 113° |
| 2026-05-04 21:16 | 25.27001 | 51.07163 | 17374 ft | 441 kts | 102° |
| 2026-05-04 21:16 | 25.26773 | 51.10505 | 16516 ft | 433 kts | 90° |
| 2026-05-04 21:17 | 25.26824 | 51.13780 | 15899 ft | 418 kts | 89° |
| 2026-05-04 21:17 | 25.26889 | 51.16921 | 15528 ft | 400 kts | 89° |
| 2026-05-04 21:17 | 25.26940 | 51.19922 | 15186 ft | 382 kts | 88° |
| 2026-05-04 21:17 | 25.26981 | 51.22780 | 14840 ft | 360 kts | 88° |
| 2026-05-04 21:18 | 25.27100 | 51.25461 | 14348 ft | 344 kts | 79° |
| 2026-05-04 21:18 | 25.27695 | 51.27991 | 14016 ft | 337 kts | 70° |
| 2026-05-04 21:18 | 25.28413 | 51.30440 | 13702 ft | 332 kts | 70° |
| 2026-05-04 21:18 | 25.29124 | 51.32852 | 13318 ft | 329 kts | 69° |
| 2026-05-04 21:19 | 25.29824 | 51.35249 | 12894 ft | 327 kts | 69° |
| 2026-05-04 21:19 | 25.30515 | 51.37628 | 12462 ft | 324 kts | 69° |
| 2026-05-04 21:19 | 25.31199 | 51.39995 | 12045 ft | 322 kts | 69° |
| 2026-05-04 21:19 | 25.31875 | 51.42342 | 11642 ft | 320 kts | 69° |
| 2026-05-04 21:20 | 25.32546 | 51.44676 | 11249 ft | 317 kts | 69° |
| 2026-05-04 21:20 | 25.33211 | 51.46992 | 10855 ft | 315 kts | 69° |
| 2026-05-04 21:20 | 25.33867 | 51.49279 | 10470 ft | 312 kts | 69° |
| 2026-05-04 21:20 | 25.34364 | 51.51011 | 10177 ft | 311 kts | 68° |
| 2026-05-04 21:21 | 25.35015 | 51.53284 | 9782 ft | 309 kts | 68° |
| 2026-05-04 21:21 | 25.35659 | 51.55533 | 9381 ft | 306 kts | 68° |
| 2026-05-04 21:21 | 25.36288 | 51.57730 | 9058 ft | 300 kts | 68° |
| 2026-05-04 21:21 | 25.36920 | 51.59941 | 8986 ft | 297 kts | 68° |
| 2026-05-04 21:22 | 25.37545 | 51.62125 | 8988 ft | 297 kts | 68° |
| 2026-05-04 21:22 | 25.37963 | 51.64323 | 8980 ft | 295 kts | 84° |
| 2026-05-04 21:22 | 25.37471 | 51.66509 | 8986 ft | 291 kts | 117° |
| 2026-05-04 21:22 | 25.36077 | 51.68069 | 9000 ft | 293 kts | 150° |
| 2026-05-04 21:23 | 25.34214 | 51.68977 | 8991 ft | 294 kts | 160° |
| 2026-05-04 21:23 | 25.32287 | 51.69750 | 8991 ft | 295 kts | 160° |
| 2026-05-04 21:23 | 25.30362 | 51.70540 | 9002 ft | 295 kts | 159° |
| 2026-05-04 21:23 | 25.28458 | 51.71346 | 8883 ft | 291 kts | 159° |
| 2026-05-04 21:24 | 25.26561 | 51.72159 | 8427 ft | 294 kts | 159° |
| 2026-05-04 21:24 | 25.24648 | 51.72987 | 8008 ft | 296 kts | 159° |
| 2026-05-04 21:24 | 25.22734 | 51.73821 | 7638 ft | 296 kts | 158° |
| 2026-05-04 21:24 | 25.20824 | 51.74657 | 7278 ft | 295 kts | 158° |
| 2026-05-04 21:25 | 25.18922 | 51.75490 | 6933 ft | 293 kts | 158° |
| 2026-05-04 21:25 | 25.17032 | 51.76322 | 6591 ft | 292 kts | 158° |
| 2026-05-04 21:25 | 25.15150 | 51.77146 | 6255 ft | 291 kts | 158° |
| 2026-05-04 21:25 | 25.13278 | 51.77967 | 5942 ft | 288 kts | 158° |
| 2026-05-04 21:26 | 25.11448 | 51.78771 | 5782 ft | 278 kts | 158° |
| 2026-05-04 21:26 | 25.09677 | 51.79532 | 5641 ft | 268 kts | 160° |
| 2026-05-04 21:26 | 25.07874 | 51.79831 | 5449 ft | 259 kts | 188° |
| 2026-05-04 21:26 | 25.06283 | 51.79104 | 5289 ft | 242 kts | 224° |
| 2026-05-04 21:27 | 25.05274 | 51.77720 | 5153 ft | 225 kts | 245° |
| 2026-05-04 21:27 | 25.04578 | 51.76221 | 5014 ft | 215 kts | 252° |
| 2026-05-04 21:27 | 25.04028 | 51.74715 | 4815 ft | 210 kts | 255° |
| 2026-05-04 21:27 | 25.03654 | 51.73184 | 4561 ft | 204 kts | 270° |
| 2026-05-04 21:28 | 25.03742 | 51.71660 | 4262 ft | 197 kts | 290° |
| 2026-05-04 21:28 | 25.04430 | 51.70421 | 3966 ft | 188 kts | 318° |
| 2026-05-04 21:28 | 25.05443 | 51.69539 | 3745 ft | 183 kts | 332° |
| 2026-05-04 21:28 | 25.06549 | 51.68948 | 3680 ft | 169 kts | 339° |
| 2026-05-04 21:29 | 25.07605 | 51.68463 | 3577 ft | 162 kts | 339° |
| 2026-05-04 21:29 | 25.08639 | 51.67998 | 3400 ft | 160 kts | 339° |
| 2026-05-04 21:29 | 25.09645 | 51.67554 | 3201 ft | 151 kts | 339° |
| 2026-05-04 21:29 | 25.10589 | 51.67137 | 3007 ft | 143 kts | 339° |
| 2026-05-04 21:30 | 25.11502 | 51.66734 | 2823 ft | 138 kts | 340° |
| 2026-05-04 21:30 | 25.12365 | 51.66354 | 2645 ft | 133 kts | 340° |
| 2026-05-04 21:30 | 25.13221 | 51.65977 | 2488 ft | 132 kts | 339° |
| 2026-05-04 21:30 | 25.14073 | 51.65601 | 2330 ft | 132 kts | 339° |
| 2026-05-04 21:31 | 25.15771 | 51.64853 | 1997 ft | 131 kts | 340° |
| 2026-05-04 21:31 | 25.16616 | 51.64480 | 1831 ft | 130 kts | 340° |
| 2026-05-04 21:31 | 25.17457 | 51.64110 | 1658 ft | 130 kts | 340° |
| 2026-05-04 21:32 | 25.18295 | 51.63741 | 1509 ft | 130 kts | 340° |
| 2026-05-04 21:32 | 25.19131 | 51.63373 | 1342 ft | 129 kts | 338° |
| 2026-05-04 21:32 | 25.19969 | 51.63003 | 1191 ft | 130 kts | 339° |
| 2026-05-04 21:32 | 25.20810 | 51.62633 | 1010 ft | 130 kts | 338° |
| 2026-05-04 21:33 | 25.21653 | 51.62260 | 858 ft | 131 kts | 338° |
| 2026-05-04 21:33 | 25.22510 | 51.61887 | 705 ft | 133 kts | 338° |
| 2026-05-04 21:33 | 25.23381 | 51.61521 | 580 ft | 136 kts | 338° |
| 2026-05-04 21:33 | 25.24257 | 51.61127 | 366 ft | 135 kts | 335° |
| 2026-05-04 21:34 | 25.25108 | 51.60743 | 175 ft | 133 kts | 337° |
| 2026-05-04 21:34 | 25.25972 | 51.60368 | 28 ft | 131 kts | 336° |
| 2026-05-04 21:34 | 25.26724 | 51.60026 | 22 ft | 100 kts | 339° |
| 2026-05-04 21:34 | 25.27282 | 51.59782 | 22 ft | 74 kts | 339° |
| 2026-05-04 21:35 | 25.27694 | 51.59606 | 21 ft | 54 kts | 339° |
| 2026-05-04 21:35 | 25.27939 | 51.59519 | 21 ft | 31 kts | 355° |
| 2026-05-04 21:35 | 25.28083 | 51.59532 | 28 ft | 10 kts | 12° |
| 2026-05-04 21:35 | 25.28124 | 51.59566 | 28 ft | 2 kts | 75° |
| 2026-05-04 21:36 | 25.28118 | 51.59588 | 32 ft | 9 kts | 112° |
| 2026-05-04 21:36 | 25.28055 | 51.59653 | 26 ft | 10 kts | 163° |
| 2026-05-04 21:36 | 25.27987 | 51.59675 | 31 ft | 12 kts | 162° |
| 2026-05-04 21:36 | 25.27973 | 51.59681 | 26 ft | 0 kts | 158° |
| 2026-05-04 21:39 | 25.27922 | 51.59703 | 26 ft | 12 kts | 159° |
| 2026-05-04 21:40 | 25.27837 | 51.59740 | 26 ft | 15 kts | 159° |
| 2026-05-04 21:40 | 25.27730 | 51.59787 | 30 ft | 18 kts | 158° |
| 2026-05-04 21:40 | 25.27605 | 51.59843 | 26 ft | 21 kts | 158° |
| 2026-05-04 21:40 | 25.27462 | 51.59908 | 26 ft | 24 kts | 158° |
| 2026-05-04 21:41 | 25.27301 | 51.59978 | 27 ft | 26 kts | 158° |
| 2026-05-04 21:41 | 25.27164 | 51.60038 | 26 ft | 16 kts | 159° |
| 2026-05-04 21:41 | 25.27050 | 51.60088 | 29 ft | 18 kts | 158° |
| 2026-05-04 21:41 | 25.26972 | 51.60122 | 31 ft | 10 kts | 157° |
| 2026-05-04 21:42 | 25.26953 | 51.60201 | 27 ft | 14 kts | 75° |
| 2026-05-04 21:42 | 25.26994 | 51.60309 | 28 ft | 17 kts | 67° |
| 2026-05-04 21:42 | 25.27039 | 51.60436 | 28 ft | 19 kts | 68° |
| 2026-05-04 21:42 | 25.27089 | 51.60582 | 28 ft | 20 kts | 69° |
| 2026-05-04 21:43 | 25.27097 | 51.60677 | 28 ft | 6 kts | 134° |
| 2026-05-04 21:43 | 25.27057 | 51.60708 | 28 ft | 4 kts | 120° |
| 2026-05-04 21:43 | 25.27063 | 51.60771 | 28 ft | 10 kts | 72° |
| 2026-05-04 21:43 | 25.27064 | 51.60787 | 28 ft | 1 kts | 83° |
| 2026-05-04 21:44 | 25.27082 | 51.60829 | 28 ft | 10 kts | 66° |
| 2026-05-04 21:44 | 25.27112 | 51.60911 | 28 ft | 13 kts | 69° |
| 2026-05-04 21:44 | 25.27138 | 51.60985 | 28 ft | 8 kts | 76° |
| 2026-05-04 21:44 | 25.27127 | 51.61011 | 28 ft | 3 kts | 136° |
| 2026-05-04 21:45 | 25.27077 | 51.61041 | 28 ft | 7 kts | 160° |
| 2026-05-04 21:45 | 25.27053 | 51.61052 | 28 ft | 0 kts | 158° |